Time;durP1;ratioP1;P1;durP2;ratioP2;P2;SDS_P1;SDS_P2;PMS_P1;PMS_P2;Temp;Humidity;BMP_temperature;BMP_pressure;BME280_temperature;BME280_humidity;BME280_pressure;Samples;Min_cycle;Max_cycle;Signal;HPM_P1;HPM_P2
2022/11/16 00:01:03;;;;;;;7.68;4.53;;;9.00;99.90;;;;;;5073115;28;20611;-75
2022/11/16 00:03:30;;;;;;;7.75;5.05;;;9.00;99.90;;;;;;5072720;28;20388;-75
2022/11/16 00:06:01;;;;;;;6.53;4.65;;;9.00;99.90;;;;;;5073334;28;20024;-75
2022/11/16 00:08:32;;;;;;;7.63;5.55;;;9.00;99.90;;;;;;5072823;28;20021;-75
2022/11/16 00:11:12;;;;;;;7.13;5.13;;;7.60;99.90;;;;;;5072965;28;20020;-75
2022/11/16 00:13:40;;;;;;;6.97;4.07;;;8.90;99.90;;;;;;5072838;28;20097;-76
2022/11/16 00:16:07;;;;;;;6.78;4.75;;;9.00;99.90;;;;;;5072628;28;20016;-75
2022/11/16 00:18:33;;;;;;;9.57;5.43;;;9.00;99.90;;;;;;5072226;28;20115;-75
2022/11/16 00:20:59;;;;;;;8.13;4.88;;;9.00;99.90;;;;;;5072569;28;20469;-75
2022/11/16 00:23:25;;;;;;;6.05;4.40;;;9.10;99.90;;;;;;5072587;28;20037;-76
2022/11/16 00:25:52;;;;;;;9.80;5.10;;;9.10;99.90;;;;;;5072585;28;20024;-75
2022/11/16 00:28:17;;;;;;;9.32;5.47;;;9.10;99.90;;;;;;5072767;28;20028;-76
2022/11/16 00:30:43;;;;;;;6.25;4.68;;;9.10;99.90;;;;;;5072340;28;20027;-76
2022/11/16 00:33:14;;;;;;;6.40;4.43;;;9.20;99.90;;;;;;5072238;28;20028;-76
2022/11/16 00:35:40;;;;;;;7.70;4.78;;;9.20;99.90;;;;;;5072210;28;20378;-76
2022/11/16 00:38:06;;;;;;;8.48;4.30;;;9.20;99.90;;;;;;5070925;28;20041;-76
2022/11/16 00:40:33;;;;;;;6.00;3.65;;;9.20;99.90;;;;;;5070907;28;20120;-76
2022/11/16 00:42:58;;;;;;;6.20;3.58;;;9.20;99.90;;;;;;5072193;28;20560;-76
2022/11/16 00:45:24;;;;;;;7.93;3.35;;;9.20;99.90;;;;;;5070809;28;20115;-75
2022/11/16 00:47:49;;;;;;;4.05;3.30;;;9.30;99.90;;;;;;5071999;28;20389;-76
2022/11/16 00:50:15;;;;;;;2.92;2.72;;;9.40;99.90;;;;;;5070486;28;20028;-75
2022/11/16 00:52:41;;;;;;;4.45;2.42;;;9.50;99.90;;;;;;5070644;28;20033;-75
2022/11/16 00:55:07;;;;;;;2.40;0.82;;;9.70;99.90;;;;;;5071904;28;20032;-75
2022/11/16 00:57:35;;;;;;;1.38;0.60;;;10.00;99.90;;;;;;5071857;28;20035;-75
2022/11/16 01:00:01;;;;;;;0.70;0.70;;;10.10;99.90;;;;;;5071761;28;20025;-75
2022/11/16 01:02:26;;;;;;;2.20;0.90;;;10.20;99.90;;;;;;5072071;28;20031;-75
2022/11/16 01:04:52;;;;;;;1.23;1.17;;;10.20;99.90;;;;;;5071844;28;20028;-75
2022/11/16 01:07:18;;;;;;;0.43;0.43;;;10.30;99.90;;;;;;5071893;28;20067;-75
2022/11/16 01:09:43;;;;;;;1.00;0.68;;;10.30;99.90;;;;;;5071671;28;20104;-75
2022/11/16 01:12:09;;;;;;;0.47;0.40;;;10.40;99.90;;;;;;5071607;28;20033;-76
2022/11/16 01:14:42;;;;;;;0.55;0.55;;;10.40;99.90;;;;;;5078305;28;20516;-75
2022/11/16 01:17:07;;;;;;;0.45;0.40;;;10.50;99.90;;;;;;5091684;28;20107;-75
2022/11/16 01:19:33;;;;;;;0.38;0.38;;;10.50;99.90;;;;;;5091635;28;20115;-75
2022/11/16 01:22:00;;;;;;;3.00;0.40;;;10.50;99.90;;;;;;5091860;28;20024;-75
2022/11/16 01:24:26;;;;;;;0.75;0.28;;;10.50;99.90;;;;;;5090266;28;20560;-75
2022/11/16 01:26:55;;;;;;;0.20;0.20;;;10.40;99.90;;;;;;5091525;28;20023;-74
2022/11/16 01:29:25;;;;;;;0.47;0.30;;;10.40;99.90;;;;;;5091608;28;20465;-75
2022/11/16 01:31:51;;;;;;;0.22;0.22;;;10.40;99.90;;;;;;5091364;28;20062;-74
2022/11/16 01:34:17;;;;;;;1.98;0.30;;;10.50;99.90;;;;;;5091026;28;20056;-75
2022/11/16 01:36:42;;;;;;;0.38;0.38;;;10.40;99.90;;;;;;5091446;28;20031;-75
2022/11/16 01:39:11;;;;;;;0.20;0.20;;;10.30;99.90;;;;;;5091367;28;20036;-75
2022/11/16 01:41:37;;;;;;;0.20;0.20;;;10.30;99.90;;;;;;5090813;28;20044;-76
2022/11/16 01:44:25;;;;;;;0.10;0.10;;;10.20;99.90;;;;;;5107321;28;20092;-76
2022/11/16 01:46:50;;;;;;;0.20;0.20;;;10.20;99.90;;;;;;5091114;28;20020;-75
2022/11/16 01:49:19;;;;;;;0.40;0.20;;;10.20;99.90;;;;;;5106651;28;20129;-76
2022/11/16 01:51:50;;;;;;;0.20;0.17;;;10.10;99.90;;;;;;5091065;28;20103;-75
2022/11/16 01:54:16;;;;;;;0.20;0.20;;;10.10;99.90;;;;;;5089730;28;20112;-76
2022/11/16 01:56:46;;;;;;;0.10;0.10;;;10.10;99.90;;;;;;5091394;28;20447;-75
2022/11/16 01:59:13;;;;;;;0.20;0.20;;;10.00;99.90;;;;;;5089687;28;20089;-75
2022/11/16 02:01:39;;;;;;;0.35;0.20;;;9.90;99.90;;;;;;5091040;28;20095;-76
2022/11/16 02:04:05;;;;;;;0.38;0.25;;;9.80;99.90;;;;;;5090746;28;20028;-76
2022/11/16 02:06:52;;;;;;;3.63;0.20;;;9.80;99.90;;;;;;5091070;28;20039;-76
2022/11/16 02:09:59;;;;;;;0.35;0.25;;;9.80;99.90;;;;;;5089733;28;20097;-76
2022/11/16 02:12:38;;;;;;;0.70;0.70;;;9.80;99.90;;;;;;5090732;28;20020;-75
2022/11/16 02:15:40;;;;;;;0.10;0.10;;;9.70;99.90;;;;;;5090858;28;20461;-76
2022/11/16 02:18:28;;;;;;;0.20;0.20;;;9.60;99.90;;;;;;5095931;28;20044;-76
2022/11/16 02:21:01;;;;;;;0.10;0.10;;;;;;;;;;5090704;28;20028;-75
2022/11/16 02:24:03;;;;;;;0.20;0.20;;;9.60;99.90;;;;;;5090539;28;20055;-76
2022/11/16 02:26:46;;;;;;;0.63;0.20;;;9.50;99.90;;;;;;5089164;28;20492;-76
2022/11/16 02:29:28;;;;;;;0.20;0.20;;;9.50;99.90;;;;;;5090406;28;20028;-75
2022/11/16 02:31:57;;;;;;;0.10;0.10;;;9.60;99.90;;;;;;5089118;28;20372;-75
2022/11/16 02:34:25;;;;;;;0.10;0.10;;;9.50;99.90;;;;;;5090091;28;20071;-76
2022/11/16 02:36:55;;;;;;;0.10;0.10;;;9.50;99.90;;;;;;5090496;28;20473;-76
2022/11/16 02:39:26;;;;;;;0.10;0.10;;;9.50;99.90;;;;;;5106022;28;20480;-75
2022/11/16 02:41:54;;;;;;;0.20;0.20;;;9.60;99.90;;;;;;5090102;28;20029;-75
2022/11/16 02:44:47;;;;;;;0.40;0.40;;;9.50;99.90;;;;;;5090375;28;20486;-76
2022/11/16 02:47:19;;;;;;;0.30;0.30;;;9.50;99.90;;;;;;5087791;28;20520;-76
2022/11/16 02:49:58;;;;;;;1.15;0.25;;;9.40;99.90;;;;;;5090053;28;20020;-75
2022/11/16 02:52:27;;;;;;;0.20;0.20;;;9.40;99.90;;;;;;5088041;28;20484;-75
2022/11/16 02:54:52;;;;;;;0.10;0.10;;;9.40;99.90;;;;;;5088839;28;20396;-75
2022/11/16 02:57:51;;;;;;;0.08;0.08;;;9.30;99.90;;;;;;5090026;28;20031;-76
2022/11/16 03:00:44;;;;;;;0.20;0.20;;;9.30;99.90;;;;;;5081440;28;20044;-76
2022/11/16 03:03:13;;;;;;;0.10;0.10;;;9.20;99.90;;;;;;5089856;28;20036;-75
2022/11/16 03:05:56;;;;;;;0.10;0.10;;;9.30;99.90;;;;;;5089872;28;20469;-75
2022/11/16 03:08:25;;;;;;;0.15;0.15;;;9.30;99.90;;;;;;5089956;28;20035;-75
2022/11/16 03:13:43;;;;;;;0.20;0.20;;;9.50;99.90;;;;;;5089831;28;20031;-76
2022/11/16 03:16:32;;;;;;;2.97;0.20;;;9.40;99.90;;;;;;5089883;28;20024;-76
2022/11/16 03:18:59;;;;;;;;;;;9.30;99.90;;;;;;5089834;28;20036;-76
2022/11/16 03:22:00;;;;;;;0.28;0.28;;;9.20;99.90;;;;;;5089822;28;19908;-75
2022/11/16 03:24:26;;;;;;;0.20;0.20;;;9.20;99.90;;;;;;5076390;28;20040;-75
2022/11/16 03:27:15;;;;;;;0.43;0.17;;;9.10;99.90;;;;;;5089774;28;20350;-76
2022/11/16 03:29:55;;;;;;;0.22;0.22;;;9.10;99.90;;;;;;5060473;28;20147;-76
2022/11/16 03:32:50;;;;;;;0.20;0.20;;;9.00;99.90;;;;;;5088386;28;20100;-75
2022/11/16 03:35:26;;;;;;;0.10;0.10;;;8.90;99.90;;;;;;5089118;28;20051;-76
2022/11/16 03:37:54;;;;;;;0.10;0.10;;;8.90;99.90;;;;;;5089345;28;20024;-76
2022/11/16 03:40:22;;;;;;;0.52;0.52;;;8.90;99.90;;;;;;5088299;28;20119;-76
2022/11/16 03:42:48;;;;;;;0.30;0.30;;;8.80;99.90;;;;;;5090013;28;20028;-75
2022/11/16 03:45:16;;;;;;;0.32;0.28;;;8.70;99.90;;;;;;5089669;28;20028;-76
2022/11/16 03:47:41;;;;;;;0.20;0.20;;;8.60;99.90;;;;;;5089740;28;20055;-75
2022/11/16 03:50:08;;;;;;;0.30;0.30;;;8.50;99.90;;;;;;5089293;28;20466;-75
2022/11/16 03:52:34;;;;;;;0.10;0.10;;;8.40;99.90;;;;;;5089415;28;20070;-75
2022/11/16 03:55:00;;;;;;;0.43;0.43;;;8.30;99.90;;;;;;5089434;28;20032;-76
2022/11/16 03:57:25;;;;;;;0.20;0.20;;;8.20;99.90;;;;;;5089369;28;20119;-75
2022/11/16 03:59:51;;;;;;;3.63;0.22;;;8.20;99.90;;;;;;5089442;28;20037;-76
2022/11/16 04:02:18;;;;;;;0.20;0.20;;;;;;;;;;5089314;28;20305;-76
2022/11/16 04:24:22;;;;;;;0.20;0.20;;;7.40;99.90;;;;;;5093157;28;20120;-76
2022/11/16 04:29:37;;;;;;;;;;;7.20;99.90;;;;;;5093489;28;20615;-75
2022/11/16 04:38:04;;;;;;;3.40;0.98;;;6.90;99.90;;;;;;5092593;28;20107;-76
2022/11/16 04:40:28;;;;;;;0.20;0.20;;;6.80;99.90;;;;;;5089866;28;20419;-76
2022/11/16 04:42:59;;;;;;;0.38;0.28;;;6.70;99.90;;;;;;5092522;28;20043;-75
2022/11/16 04:48:12;;;;;;;0.75;0.38;;;6.50;99.90;;;;;;5092638;28;20034;-76
2022/11/16 04:50:39;;;;;;;17.08;7.13;;;6.40;99.90;;;;;;5092264;28;20085;-76
2022/11/16 04:53:05;;;;;;;0.28;0.28;;;6.40;99.90;;;;;;5092236;28;20027;-76
2022/11/16 04:55:32;;;;;;;1.75;0.40;;;6.50;99.90;;;;;;5092451;28;20020;-75
2022/11/16 04:57:58;;;;;;;0.28;0.28;;;6.40;99.90;;;;;;5090918;28;20028;-75
2022/11/16 05:00:25;;;;;;;0.20;0.20;;;6.50;99.90;;;;;;5092097;28;20115;-75
2022/11/16 05:02:50;;;;;;;0.17;0.17;;;6.40;99.90;;;;;;5091959;28;20295;-76
2022/11/16 05:05:16;;;;;;;0.30;0.30;;;6.40;99.90;;;;;;5090867;28;20321;-75
2022/11/16 05:07:42;;;;;;;0.63;0.63;;;6.40;99.90;;;;;;5090609;28;20032;-75
2022/11/16 05:10:09;;;;;;;1.45;0.20;;;6.30;99.90;;;;;;5107525;28;20564;-75
2022/11/16 05:12:35;;;;;;;0.43;0.32;;;6.30;99.90;;;;;;5091819;28;20026;-75
2022/11/16 05:15:00;;;;;;;0.20;0.20;;;6.20;99.90;;;;;;5091262;28;20095;-75
2022/11/16 05:17:27;;;;;;;0.10;0.10;;;6.80;99.90;;;;;;5091828;28;20526;-76
2022/11/16 05:22:38;;;;;;;0.47;0.43;;;6.20;99.90;;;;;;5092003;28;20055;-76
2022/11/16 05:25:05;;;;;;;0.20;0.20;;;6.20;99.90;;;;;;5091916;28;20258;-76
2022/11/16 05:27:31;;;;;;;0.75;0.75;;;6.10;99.90;;;;;;5092022;28;20020;-76
2022/11/16 05:29:56;;;;;;;0.20;0.20;;;6.10;99.90;;;;;;5091546;28;20361;-76
2022/11/16 05:32:24;;;;;;;2.42;0.20;;;6.20;99.90;;;;;;5090105;28;20028;-75
2022/11/16 05:34:50;;;;;;;0.40;0.40;;;;;;;;;;5090101;28;20071;-75
2022/11/16 05:37:17;;;;;;;2.10;1.75;;;6.10;99.90;;;;;;5091898;28;20069;-75
2022/11/16 05:39:42;;;;;;;8.73;3.70;;;6.10;99.90;;;;;;5091586;28;20028;-75
2022/11/16 05:42:08;;;;;;;4.80;2.35;;;6.10;99.90;;;;;;5090140;28;20092;-76
2022/11/16 05:44:34;;;;;;;7.45;4.20;;;6.10;99.90;;;;;;5106923;28;20030;-75
2022/11/16 05:47:00;;;;;;;4.95;3.03;;;6.10;99.90;;;;;;5089869;28;20101;-76
2022/11/16 05:49:26;;;;;;;1.83;0.90;;;6.10;99.90;;;;;;5090844;28;20486;-75
2022/11/16 05:51:52;;;;;;;0.88;0.50;;;6.30;99.90;;;;;;5107014;28;20468;-75
2022/11/16 05:54:20;;;;;;;1.85;1.08;;;6.90;99.90;;;;;;5091036;28;20269;-76
2022/11/16 05:56:47;;;;;;;0.70;0.70;;;7.00;99.90;;;;;;5091635;28;20020;-76
2022/11/16 05:59:15;;;;;;;1.85;1.63;;;7.10;99.90;;;;;;5089720;28;20290;-77
2022/11/16 06:01:41;;;;;;;0.60;0.60;;;7.00;99.90;;;;;;5089728;28;20016;-76
2022/11/16 06:04:07;;;;;;;11.85;4.13;;;7.10;99.90;;;;;;5089097;28;20021;-76
2022/11/16 06:06:33;;;;;;;5.32;2.38;;;7.00;99.90;;;;;;5090790;28;20020;-76
2022/11/16 06:08:59;;;;;;;2.45;0.82;;;7.30;99.90;;;;;;5089594;28;20032;-75
2022/11/16 06:11:26;;;;;;;1.88;0.52;;;7.40;99.90;;;;;;5090810;28;20028;-75
2022/11/16 06:13:51;;;;;;;0.73;0.60;;;7.50;99.90;;;;;;5090867;28;20051;-76
2022/11/16 06:16:17;;;;;;;0.95;0.60;;;7.60;99.90;;;;;;5091253;28;20055;-75
2022/11/16 06:18:45;;;;;;;2.88;1.92;;;7.60;99.90;;;;;;5089349;28;20467;-76
2022/11/16 06:21:13;;;;;;;2.67;2.33;;;7.90;99.90;;;;;;5090678;28;20043;-75
2022/11/16 06:23:39;;;;;;;2.15;0.60;;;8.00;99.90;;;;;;5091241;28;20503;-75
2022/11/16 06:26:05;;;;;;;0.57;0.47;;;8.00;99.90;;;;;;5090292;28;20437;-76
2022/11/16 06:28:31;;;;;;;0.50;0.50;;;8.00;99.90;;;;;;5091035;28;20032;-77
2022/11/16 06:30:57;;;;;;;0.77;0.50;;;8.00;99.90;;;;;;5094443;28;20020;-76
2022/11/16 06:33:23;;;;;;;1.92;0.30;;;8.00;99.90;;;;;;5096439;28;20453;-76
2022/11/16 06:35:49;;;;;;;0.43;0.40;;;8.00;99.90;;;;;;5090329;28;20123;-76
2022/11/16 06:38:17;;;;;;;0.35;0.30;;;;;;;;;;5107724;28;20324;-76
2022/11/16 06:40:51;;;;;;;1.38;0.55;;;8.20;99.90;;;;;;5097575;28;20031;-76
2022/11/16 06:43:17;;;;;;;14.43;4.85;;;;;;;;;;5088504;28;20089;-76
2022/11/16 06:45:48;;;;;;;2.50;2.15;;;8.30;99.90;;;;;;5089990;28;20032;-76
2022/11/16 06:48:14;;;;;;;3.95;1.80;;;8.30;99.90;;;;;;5091188;28;20498;-76
2022/11/16 06:50:40;;;;;;;0.88;0.60;;;;;;;;;;5093009;28;20375;-75
2022/11/16 06:53:06;;;;;;;13.45;5.00;;;;;;;;;;5076067;28;20035;-83
2022/11/16 06:55:32;;;;;;;5.68;1.27;;;8.70;99.90;;;;;;5067673;28;20266;-75
2022/11/16 06:57:57;;;;;;;3.13;2.05;;;8.80;99.90;;;;;;5067933;28;20054;-81
2022/11/16 07:00:23;;;;;;;0.88;0.50;;;9.00;99.90;;;;;;5067424;28;20244;-82
2022/11/16 07:02:49;;;;;;;2.28;1.55;;;9.10;99.90;;;;;;5068117;28;20024;-81
2022/11/16 07:05:15;;;;;;;2.47;1.05;;;9.20;99.90;;;;;;5066941;28;20033;-84
2022/11/16 07:07:40;;;;;;;0.43;0.43;;;9.20;99.90;;;;;;5067452;28;20021;-80
2022/11/16 07:10:07;;;;;;;0.93;0.65;;;;;;;;;;5066821;28;20029;-83
2022/11/16 07:12:33;;;;;;;2.33;0.82;;;;;;;;;;5069693;28;20025;-83
2022/11/16 07:14:58;;;;;;;2.83;0.20;;;9.20;99.90;;;;;;5067059;28;20039;-78
2022/11/16 07:17:24;;;;;;;0.30;0.30;;;9.10;99.90;;;;;;5066244;28;20029;-82
2022/11/16 07:19:49;;;;;;;1.98;0.10;;;9.10;99.90;;;;;;5066864;28;20123;-87
2022/11/16 07:22:15;;;;;;;0.30;0.30;;;9.00;99.90;;;;;;5066305;28;20066;-77
2022/11/16 07:24:41;;;;;;;1.65;0.20;;;9.10;99.90;;;;;;5065171;28;20034;-85
2022/11/16 07:27:07;;;;;;;0.28;0.28;;;9.10;99.90;;;;;;5066929;28;20029;-77
2022/11/16 07:29:35;;;;;;;0.73;0.25;;;9.00;99.90;;;;;;5066585;28;20032;-80
2022/11/16 07:32:00;;;;;;;1.05;0.80;;;8.90;99.90;;;;;;5066424;28;20340;-76
2022/11/16 07:34:26;;;;;;;0.40;0.40;;;8.80;99.90;;;;;;5081070;28;20046;-76
2022/11/16 07:36:52;;;;;;;2.03;0.52;;;8.90;99.90;;;;;;5065968;28;20024;-75
2022/11/16 07:39:17;;;;;;;0.95;0.32;;;9.00;99.90;;;;;;5068479;28;20043;-76
2022/11/16 07:41:44;;;;;;;1.15;0.28;;;9.00;99.90;;;;;;5069958;28;20051;-76
2022/11/16 07:44:09;;;;;;;0.20;0.20;;;9.10;99.90;;;;;;5070325;28;20024;-75
2022/11/16 07:46:35;;;;;;;0.38;0.30;;;9.20;99.90;;;;;;5077883;28;20012;-75
2022/11/16 07:49:01;;;;;;;0.65;0.30;;;9.30;99.90;;;;;;5089863;28;20024;-76
2022/11/16 07:51:26;;;;;;;1.15;0.60;;;9.40;99.90;;;;;;5090020;28;20055;-76
2022/11/16 07:53:56;;;;;;;3.60;0.43;;;9.50;99.90;;;;;;5090278;28;20024;-76
2022/11/16 07:56:22;;;;;;;5.30;0.80;;;9.50;99.90;;;;;;5090141;28;20051;-75
2022/11/16 07:58:47;;;;;;;4.50;0.38;;;9.50;99.90;;;;;;5091557;28;20067;-76
2022/11/16 08:01:15;;;;;;;0.40;0.10;;;9.40;99.90;;;;;;5090204;28;20019;-76
2022/11/16 08:03:42;;;;;;;0.70;0.40;;;9.50;99.90;;;;;;5088511;28;20111;-77
2022/11/16 08:06:13;;;;;;;0.30;0.30;;;9.60;99.90;;;;;;5089897;28;20081;-76
2022/11/16 08:08:39;;;;;;;0.40;0.40;;;9.60;99.90;;;;;;5089842;28;20026;-76
2022/11/16 08:11:07;;;;;;;0.30;0.20;;;9.70;99.90;;;;;;5090192;28;20368;-76
2022/11/16 08:13:38;;;;;;;0.28;0.28;;;9.80;99.90;;;;;;5091521;28;20027;-76
2022/11/16 08:16:09;;;;;;;0.50;0.20;;;9.80;99.90;;;;;;5090874;28;20473;-76
2022/11/16 08:18:35;;;;;;;2.42;0.60;;;9.80;99.90;;;;;;5090184;28;20499;-77
2022/11/16 08:21:03;;;;;;;2.40;0.30;;;9.90;99.90;;;;;;5088506;28;20024;-75
2022/11/16 08:23:29;;;;;;;1.67;0.43;;;9.90;99.90;;;;;;5090073;28;20081;-76
2022/11/16 08:25:59;;;;;;;0.32;0.30;;;10.00;99.90;;;;;;5089856;28;20413;-75
2022/11/16 08:28:26;;;;;;;1.02;0.73;;;10.00;99.90;;;;;;5089744;28;20016;-76
2022/11/16 08:30:52;;;;;;;0.55;0.32;;;10.00;99.90;;;;;;5089768;28;20528;-79
2022/11/16 08:33:20;;;;;;;0.20;0.20;;;10.10;99.90;;;;;;5089393;28;20030;-76
2022/11/16 08:35:51;;;;;;;1.00;0.30;;;10.10;99.90;;;;;;5089473;28;20044;-76
2022/11/16 08:38:17;;;;;;;0.65;0.50;;;10.10;99.90;;;;;;5088385;28;20043;-76
2022/11/16 08:40:44;;;;;;;1.00;0.90;;;10.10;99.90;;;;;;5088410;28;20028;-76
2022/11/16 08:43:10;;;;;;;0.20;0.20;;;10.10;99.90;;;;;;5089078;28;20028;-85
2022/11/16 08:45:36;;;;;;;1.20;0.55;;;10.20;99.90;;;;;;5089057;28;20039;-76
2022/11/16 08:48:06;;;;;;;2.97;0.50;;;;;;;;;;5088855;28;20384;-75
2022/11/16 08:50:32;;;;;;;0.65;0.50;;;10.30;99.90;;;;;;5087097;28;20020;-86
2022/11/16 08:52:58;;;;;;;0.28;0.28;;;;;;;;;;5089360;28;20393;-83
2022/11/16 08:55:25;;;;;;;0.60;0.40;;;10.50;99.90;;;;;;5089762;28;20035;-88
2022/11/16 08:57:51;;;;;;;0.40;0.40;;;10.50;99.90;;;;;;5089892;28;20020;-77
2022/11/16 09:00:17;;;;;;;1.35;0.80;;;10.50;99.90;;;;;;5089652;28;20523;-89
2022/11/16 09:02:42;;;;;;;0.35;0.35;;;10.50;99.90;;;;;;5088592;28;20027;-77
2022/11/16 09:05:10;;;;;;;3.67;0.60;;;10.70;99.90;;;;;;5090114;28;20602;-76
2022/11/16 09:07:38;;;;;;;2.75;0.40;;;10.70;99.90;;;;;;5089210;28;20020;-76
2022/11/16 09:10:05;;;;;;;4.03;0.65;;;10.80;99.90;;;;;;5088803;28;20051;-77
2022/11/16 09:12:31;;;;;;;1.60;0.25;;;11.00;99.90;;;;;;5105511;28;20031;-76
2022/11/16 09:14:57;;;;;;;1.85;0.40;;;11.10;99.90;;;;;;5089177;28;20071;-78
2022/11/16 09:17:22;;;;;;;1.02;0.40;;;11.20;99.90;;;;;;5089177;28;20066;-87
2022/11/16 09:19:48;;;;;;;0.57;0.20;;;11.30;99.90;;;;;;5089602;28;20377;-86
2022/11/16 09:22:14;;;;;;;1.05;0.40;;;11.50;99.90;;;;;;5087734;28;20052;-76
2022/11/16 09:24:39;;;;;;;1.95;0.22;;;11.80;99.90;;;;;;5089725;28;20023;-85
2022/11/16 09:27:05;;;;;;;4.72;0.73;;;12.00;99.90;;;;;;5089263;28;20028;-76
2022/11/16 09:29:31;;;;;;;4.40;0.50;;;12.30;99.90;;;;;;5087936;28;20466;-77
2022/11/16 09:31:57;;;;;;;3.50;0.68;;;12.50;99.90;;;;;;5088555;28;20024;-77
2022/11/16 09:34:24;;;;;;;2.65;1.33;;;12.80;99.90;;;;;;5088922;28;20036;-76
2022/11/16 09:36:50;;;;;;;1.88;0.60;;;12.80;99.90;;;;;;5092066;28;20040;-79
2022/11/16 09:39:15;;;;;;;6.65;0.85;;;12.80;99.90;;;;;;5089445;28;20032;-80
2022/11/16 09:41:59;;;;;;;1.55;0.45;;;12.70;99.90;;;;;;5088985;28;20024;-79
2022/11/16 09:44:44;;;;;;;0.30;0.20;;;12.70;99.90;;;;;;5088382;28;20028;-83
2022/11/16 09:47:17;;;;;;;0.30;0.30;;;12.80;99.90;;;;;;5088821;28;20034;-84
2022/11/16 09:49:50;;;;;;;3.35;0.82;;;12.80;99.90;;;;;;5089006;28;20027;-77
2022/11/16 09:52:42;;;;;;;2.85;0.63;;;12.90;99.90;;;;;;5087284;28;20460;-81
2022/11/16 09:55:23;;;;;;;1.35;0.43;;;12.90;99.90;;;;;;5088992;28;20036;-81
2022/11/16 09:57:52;;;;;;;1.15;0.40;;;12.90;99.90;;;;;;5091963;28;20089;-81
2022/11/16 10:00:23;;;;;;;2.47;0.95;;;12.80;99.90;;;;;;5088777;28;20040;-77
2022/11/16 10:03:15;;;;;;;2.47;0.57;;;12.60;99.90;;;;;;5081351;28;20028;-76
2022/11/16 10:06:05;;;;;;;1.27;0.55;;;12.70;99.90;;;;;;5065467;28;20037;-76
2022/11/16 10:08:33;;;;;;;;;;;12.80;99.90;;;;;;5068143;28;20020;-79
2022/11/16 10:11:23;;;;;;;0.85;0.85;;;12.70;99.90;;;;;;5067929;28;20307;-76
2022/11/16 10:13:52;;;;;;;1.33;0.90;;;12.70;99.90;;;;;;5067872;28;20559;-76
2022/11/16 10:16:25;;;;;;;1.40;0.73;;;12.70;99.90;;;;;;5067859;28;20024;-77
2022/11/16 10:19:05;;;;;;;2.50;1.02;;;12.70;99.90;;;;;;5067789;28;20166;-85
2022/11/16 10:21:47;;;;;;;1.08;0.28;;;12.80;99.90;;;;;;5068099;28;20020;-79
2022/11/16 10:24:35;;;;;;;0.50;0.40;;;12.90;99.90;;;;;;5068479;28;20519;-77
2022/11/16 10:27:31;;;;;;;0.50;0.20;;;13.00;99.90;;;;;;5066238;28;20029;-75
2022/11/16 10:30:00;;;;;;;0.80;0.65;;;13.00;99.90;;;;;;5066282;28;20078;-76
2022/11/16 10:32:30;;;;;;;0.73;0.70;;;13.00;99.80;;;;;;5065881;28;20362;-77
2022/11/16 10:35:04;;;;;;;3.78;0.88;;;13.00;99.90;;;;;;5067948;28;20358;-83
2022/11/16 10:37:35;;;;;;;0.35;0.35;;;13.20;99.90;;;;;;5067854;28;20560;-85
2022/11/16 10:40:17;;;;;;;4.22;0.80;;;13.20;99.90;;;;;;5068145;28;20124;-82
2022/11/16 10:43:15;;;;;;;0.38;0.38;;;13.20;99.90;;;;;;5067676;28;20052;-78
2022/11/16 10:45:48;;;;;;;5.03;0.80;;;13.20;99.90;;;;;;5067138;28;20040;-75
2022/11/16 10:48:16;;;;;;;0.70;0.70;;;13.10;98.30;;;;;;5086933;28;20024;-78
2022/11/16 10:50:48;;;;;;;1.17;1.08;;;12.90;97.80;;;;;;5086245;28;20032;-83
2022/11/16 10:53:24;;;;;;;1.35;0.60;;;12.90;99.10;;;;;;5086309;28;20020;-80
2022/11/16 10:56:16;;;;;;;2.92;0.63;;;12.90;99.40;;;;;;5086448;28;20069;-80
2022/11/16 10:59:00;;;;;;;0.88;0.82;;;12.80;99.80;;;;;;5094754;28;20044;-82
2022/11/16 11:01:56;;;;;;;0.30;0.30;;;12.80;98.90;;;;;;5088091;28;20035;-76
2022/11/16 11:04:23;;;;;;;1.75;1.10;;;12.90;99.60;;;;;;5068720;28;20126;-75
2022/11/16 11:06:56;;;;;;;1.30;1.20;;;12.80;98.30;;;;;;5087406;28;20173;-76
2022/11/16 11:09:36;;;;;;;6.03;0.60;;;12.90;99.90;;;;;;5086780;28;20066;-76
2022/11/16 11:15:00;;;;;;;2.25;0.68;;;;;;;;;;5086544;28;20430;-76
2022/11/16 11:17:26;;;;;;;0.65;0.32;;;13.30;99.40;;;;;;5085390;28;20044;-77
2022/11/16 11:20:02;;;;;;;0.90;0.30;;;13.40;98.40;;;;;;5085550;28;20113;-78
2022/11/16 11:22:28;;;;;;;0.10;0.10;;;13.40;97.60;;;;;;5087472;28;20024;-76
2022/11/16 11:24:54;;;;;;;0.85;0.40;;;;;;;;;;5086611;28;20078;-76
2022/11/16 11:27:30;;;;;;;2.38;0.47;;;13.40;97.40;;;;;;5087467;28;20036;-82
2022/11/16 11:30:00;;;;;;;1.27;0.88;;;13.30;98.60;;;;;;5086968;28;20417;-79
2022/11/16 11:32:37;;;;;;;;;;;13.20;97.10;;;;;;5084837;28;20028;-81
2022/11/16 11:35:05;;;;;;;0.17;0.17;;;13.20;97.90;;;;;;5084912;28;19916;-79
2022/11/16 11:37:37;;;;;;;0.47;0.20;;;13.30;98.20;;;;;;5083906;28;20493;-79
2022/11/16 11:40:08;;;;;;;0.22;0.20;;;13.30;97.00;;;;;;5085133;28;20525;-76
2022/11/16 11:42:37;;;;;;;0.47;0.20;;;13.30;97.30;;;;;;5084931;28;20024;-77
2022/11/16 11:45:06;;;;;;;0.45;0.20;;;13.50;97.20;;;;;;5085123;28;20027;-77
2022/11/16 11:47:59;;;;;;;0.98;0.25;;;13.70;96.70;;;;;;5086095;28;20016;-77
2022/11/16 11:50:47;;;;;;;2.53;0.30;;;13.70;94.60;;;;;;5086106;28;20020;-76
2022/11/16 11:53:42;;;;;;;0.25;0.25;;;13.90;94.80;;;;;;5086498;28;20020;-79
2022/11/16 11:56:10;;;;;;;0.47;0.47;;;;;;;;;;5086814;28;20020;-80
2022/11/16 11:58:38;;;;;;;0.55;0.38;;;14.10;93.40;;;;;;5071891;28;20055;-77
2022/11/16 12:01:22;;;;;;;0.60;0.57;;;14.30;92.30;;;;;;5081518;28;20112;-76
2022/11/16 12:04:02;;;;;;;4.35;0.70;;;14.20;92.60;;;;;;5081829;28;20535;-77
2022/11/16 12:07:33;;;;;;;4.22;1.77;;;14.30;93.00;;;;;;5065917;28;20071;-76
2022/11/16 12:10:23;;;;;;;2.65;0.93;;;14.20;92.50;;;;;;5018649;28;20118;-79
2022/11/16 12:13:13;;;;;;;0.30;0.10;;;14.20;91.60;;;;;;5082015;28;20032;-79
2022/11/16 12:16:01;;;;;;;0.20;0.20;;;14.20;92.40;;;;;;5082193;28;20032;-77
2022/11/16 12:18:45;;;;;;;2.50;0.70;;;14.30;93.50;;;;;;5066553;28;20032;-79
2022/11/16 12:21:33;;;;;;;0.70;0.32;;;14.30;92.50;;;;;;5066535;28;20028;-79
2022/11/16 12:24:12;;;;;;;0.30;0.30;;;14.20;91.30;;;;;;5082385;28;20036;-79
2022/11/16 12:26:52;;;;;;;5.88;1.08;;;14.10;91.10;;;;;;5070139;28;20027;-83
2022/11/16 12:29:30;;;;;;;0.52;0.35;;;14.10;92.20;;;;;;5069658;28;20122;-79
2022/11/16 12:32:20;;;;;;;0.20;0.20;;;14.20;90.90;;;;;;5069081;28;20021;-75
2022/11/16 12:35:04;;;;;;;0.70;0.20;;;14.50;90.30;;;;;;5089294;28;20428;-78
2022/11/16 12:38:11;;;;;;;4.15;0.20;;;14.70;89.50;;;;;;5089959;28;20059;-80
2022/11/16 12:40:56;;;;;;;0.10;0.10;;;15.00;89.00;;;;;;5086599;28;20024;-79
2022/11/16 12:43:40;;;;;;;0.20;0.20;;;15.10;90.10;;;;;;5088796;28;20424;-79
2022/11/16 12:46:36;;;;;;;2.15;0.22;;;15.20;84.90;;;;;;5089717;28;20024;-80
2022/11/16 12:49:31;;;;;;;0.22;0.10;;;15.30;86.10;;;;;;5085934;28;20032;-77
2022/11/16 12:52:31;;;;;;;1.25;0.10;;;15.70;83.70;;;;;;5068577;28;20074;-77
2022/11/16 12:55:25;;;;;;;2.50;0.35;;;16.70;77.30;;;;;;5068001;28;20025;-79
2022/11/16 12:58:02;;;;;;;2.45;0.47;;;17.00;74.80;;;;;;5074238;28;20059;-79
2022/11/16 13:00:51;;;;;;;0.22;0.22;;;17.50;72.60;;;;;;5081466;28;20028;-77
2022/11/16 13:03:38;;;;;;;;;;;18.30;71.30;;;;;;5076394;28;20047;-78
2022/11/16 13:06:12;;;;;;;2.55;0.40;;;19.20;67.40;;;;;;5077848;28;19915;-79
2022/11/16 13:09:11;;;;;;;0.30;0.30;;;19.80;64.80;;;;;;5068440;28;20434;-77
2022/11/16 13:11:42;;;;;;;1.15;0.57;;;20.20;61.30;;;;;;5068894;28;20032;-76
2022/11/16 13:14:39;;;;;;;0.15;0.15;;;20.20;60.00;;;;;;5067986;28;20143;-77
2022/11/16 13:17:06;;;;;;;2.65;0.32;;;20.50;59.70;;;;;;5048243;28;20358;-78
2022/11/16 13:19:38;;;;;;;0.08;0.08;;;21.10;57.90;;;;;;5068026;28;20487;-77
2022/11/16 13:22:22;;;;;;;1.88;0.35;;;21.50;56.60;;;;;;5069383;28;20021;-77
2022/11/16 13:25:05;;;;;;;1.65;0.20;;;21.70;56.60;;;;;;5067705;28;20056;-78
2022/11/16 13:27:34;;;;;;;0.43;0.22;;;21.10;56.90;;;;;;5070989;28;20277;-77
2022/11/16 13:30:14;;;;;;;2.22;0.28;;;20.80;58.40;;;;;;5095355;28;20024;-78
2022/11/16 13:32:53;;;;;;;0.28;0.28;;;20.10;58.70;;;;;;5086333;28;20528;-81
2022/11/16 13:35:19;;;;;;;2.22;0.40;;;19.50;60.70;;;;;;5071254;28;20078;-76
2022/11/16 13:37:50;;;;;;;0.28;0.10;;;19.60;61.40;;;;;;5070561;28;20028;-76
2022/11/16 13:40:20;;;;;;;1.48;0.13;;;19.60;61.00;;;;;;5069196;28;20078;-77
2022/11/16 13:43:09;;;;;;;2.20;0.47;;;19.20;61.80;;;;;;5094138;28;20149;-77
2022/11/16 13:45:57;;;;;;;1.13;0.53;;;17.60;63.80;;;;;;5089529;28;20028;-78
2022/11/16 13:48:36;;;;;;;1.45;0.35;;;17.30;66.40;;;;;;5089715;28;20345;-76
2022/11/16 13:51:04;;;;;;;0.30;0.20;;;17.50;65.80;;;;;;5092144;28;20769;-75
2022/11/16 13:53:36;;;;;;;0.10;0.10;;;17.70;65.20;;;;;;5094325;28;20030;-77
2022/11/16 13:56:05;;;;;;;0.20;0.20;;;17.60;64.60;;;;;;5099694;28;20104;-76
2022/11/16 13:58:34;;;;;;;0.43;0.20;;;17.30;65.40;;;;;;5089959;28;20047;-79
2022/11/16 14:01:13;;;;;;;0.10;0.10;;;17.30;66.70;;;;;;5090884;28;20024;-77
2022/11/16 14:03:40;;;;;;;1.10;0.30;;;17.10;66.80;;;;;;5088330;28;20416;-79